createdAt,value
2018-04-27T00:00:54.145Z,98.74
2018-04-27T00:01:54.139Z,98.65
2018-04-27T00:02:54.133Z,98.65
2018-04-27T00:03:54.126Z,98.46
2018-04-27T00:04:54.119Z,99.02
2018-04-27T00:05:54.113Z,99.12
2018-04-27T00:06:54.107Z,98.93
2018-04-27T00:07:54.099Z,98.88
2018-04-27T00:08:54.103Z,99.36
2018-04-27T00:09:54.096Z,99.45
2018-04-27T00:10:54.081Z,99.07
2018-04-27T00:11:54.080Z,99.26
2018-04-27T00:12:54.072Z,99.84
2018-04-27T00:13:54.066Z,99.99
2018-04-27T00:14:54.055Z,99.84
2018-04-27T00:15:54.049Z,99.74
2018-04-27T00:16:54.043Z,99.99
2018-04-27T00:17:54.035Z,99.99
2018-04-27T00:18:54.029Z,99.99
2018-04-27T00:19:54.022Z,99.99
2018-04-27T00:20:54.015Z,99.99
2018-04-27T00:21:54.008Z,99.99
2018-04-27T00:22:54.007Z,99.99
2018-04-27T00:23:54.000Z,99.99
2018-04-27T00:24:53.988Z,99.99
2018-04-27T00:25:53.981Z,99.99
2018-04-27T00:26:53.980Z,99.99
2018-04-27T00:27:53.973Z,99.99
2018-04-27T00:28:53.960Z,99.99
2018-04-27T00:29:53.955Z,99.99
2018-04-27T00:30:53.948Z,99.99
2018-04-27T00:31:53.942Z,99.99
2018-04-27T00:32:53.936Z,99.99
2018-04-27T00:33:53.928Z,99.99
2018-04-27T00:34:53.926Z,99.99
2018-04-27T00:35:53.919Z,99.99
2018-04-27T00:36:53.908Z,99.99
2018-04-27T00:37:53.901Z,99.99
2018-04-27T00:38:53.895Z,99.99
2018-04-27T00:39:53.888Z,99.99
2018-04-27T00:40:53.881Z,99.99
2018-04-27T00:41:53.874Z,99.99
2018-04-27T00:42:53.869Z,99.99
2018-04-27T00:43:53.861Z,99.99
2018-04-27T00:44:53.854Z,99.99
2018-04-27T00:45:53.848Z,99.99
2018-04-27T00:46:53.845Z,99.99
2018-04-27T00:47:53.839Z,99.99
2018-04-27T00:48:53.879Z,99.99
2018-04-27T00:49:53.820Z,99.99
2018-04-27T00:50:53.814Z,99.99
2018-04-27T00:51:53.806Z,99.99
2018-04-27T00:52:53.803Z,99.99
2018-04-27T00:53:53.797Z,99.99
2018-04-27T00:54:53.786Z,99.99
2018-04-27T00:55:53.779Z,99.99
2018-04-27T00:56:53.772Z,99.99
2018-04-27T00:57:53.764Z,99.99
2018-04-27T00:58:53.759Z,99.99
2018-04-27T00:59:53.752Z,99.99
2018-04-27T01:00:53.745Z,99.99
2018-04-27T01:01:53.737Z,99.99
2018-04-27T01:02:53.731Z,99.99
2018-04-27T01:03:53.723Z,99.93
2018-04-27T01:04:53.721Z,99.99
2018-04-27T01:05:53.715Z,99.99
2018-04-27T01:06:53.708Z,99.99
2018-04-27T01:07:53.701Z,99.99
2018-04-27T01:08:53.689Z,99.93
2018-04-27T01:09:53.683Z,99.99
2018-04-27T01:10:53.676Z,99.99
2018-04-27T01:11:53.670Z,99.84
2018-04-27T01:12:53.662Z,99.74
2018-04-27T01:13:53.656Z,99.99
2018-04-27T01:14:53.648Z,99.93
2018-04-27T01:15:53.641Z,99.99
2018-04-27T01:16:53.634Z,99.55
2018-04-27T01:17:53.627Z,99.55
2018-04-27T01:18:53.625Z,99.59
2018-04-27T01:19:53.618Z,99.78
2018-04-27T01:20:53.606Z,99.50
2018-04-27T01:21:53.600Z,99.59
2018-04-27T01:22:53.592Z,99.55
2018-04-27T01:23:53.586Z,99.99
2018-04-27T01:24:53.582Z,99.36
2018-04-27T01:25:53.575Z,99.40
2018-04-27T01:26:53.564Z,99.21
2018-04-27T01:27:53.557Z,99.40
2018-04-27T01:28:53.549Z,99.97
2018-04-27T01:29:53.542Z,99.11
2018-04-27T01:30:53.535Z,99.30
2018-04-27T01:31:53.528Z,99.50
2018-04-27T01:32:53.520Z,99.59
2018-04-27T01:33:53.513Z,99.50
2018-04-27T01:34:53.507Z,99.99
2018-04-27T01:35:53.500Z,99.30
2018-04-27T01:36:53.494Z,99.40
2018-04-27T01:37:53.489Z,99.30
2018-04-27T01:38:53.476Z,99.50
2018-04-27T01:39:53.471Z,99.50
2018-04-27T01:40:53.465Z,99.97
2018-04-27T01:41:53.465Z,99.78
2018-04-27T01:42:53.450Z,99.99
2018-04-27T01:43:53.442Z,99.99
2018-04-27T01:44:53.438Z,99.99
2018-04-27T01:45:53.431Z,99.99
2018-04-27T01:46:53.420Z,99.99
2018-04-27T01:47:53.413Z,99.99
2018-04-27T01:48:53.410Z,99.99
2018-04-27T01:49:53.403Z,99.88
2018-04-27T01:50:53.392Z,99.88
2018-04-27T01:51:53.385Z,99.69
2018-04-27T01:52:53.377Z,99.40
2018-04-27T01:53:53.370Z,99.02
2018-04-27T01:54:53.364Z,98.83
2018-04-27T01:55:53.356Z,98.93
2018-04-27T01:56:53.352Z,98.74
2018-04-27T01:57:53.342Z,98.17
2018-04-27T01:58:53.339Z,98.26
2018-04-27T01:59:53.331Z,97.69
2018-04-27T02:00:53.319Z,97.60
2018-04-27T02:01:53.312Z,97.41
2018-04-27T02:02:53.308Z,97.50
2018-04-27T02:03:53.301Z,97.97
2018-04-27T02:04:53.290Z,97.78
2018-04-27T02:05:53.282Z,97.88
2018-04-27T02:06:53.276Z,97.69
2018-04-27T02:07:53.272Z,98.07
2018-04-27T02:08:53.261Z,97.88
2018-04-27T02:09:53.253Z,97.78
2018-04-27T02:10:53.246Z,97.41
2018-04-27T02:11:53.240Z,97.22
2018-04-27T02:12:53.223Z,97.31
2018-04-27T02:13:53.214Z,97.41
2018-04-27T02:14:53.207Z,98.07
2018-04-27T02:15:53.205Z,97.88
2018-04-27T02:16:53.197Z,98.07
2018-04-27T02:17:53.209Z,97.78
2018-04-27T02:18:53.178Z,97.50
2018-04-27T02:19:53.172Z,98.26
2018-04-27T02:20:53.242Z,97.78
2018-04-27T02:21:53.161Z,98.07
2018-04-27T02:22:53.151Z,98.07
2018-04-27T02:23:53.154Z,98.17
2018-04-27T02:24:53.134Z,97.69
2018-04-27T02:25:53.128Z,98.17
2018-04-27T02:26:53.122Z,97.69
2018-04-27T02:27:53.113Z,97.97
2018-04-27T02:28:53.106Z,98.26
2018-04-27T02:29:53.099Z,97.50
2018-04-27T02:30:53.097Z,97.69
2018-04-27T02:31:53.089Z,97.88
2018-04-27T02:32:53.077Z,97.31
2018-04-27T02:33:53.070Z,97.31
2018-04-27T02:34:53.066Z,97.03
2018-04-27T02:35:53.059Z,97.12
2018-04-27T02:36:53.048Z,97.12
2018-04-27T02:37:53.041Z,96.93
2018-04-27T02:38:53.033Z,96.84
2018-04-27T02:39:53.026Z,96.45
2018-04-27T02:40:53.017Z,96.65
2018-04-27T02:41:53.010Z,96.17
2018-04-27T02:42:53.007Z,96.26
2018-04-27T02:43:53.000Z,96.12
2018-04-27T02:44:52.992Z,95.94
2018-04-27T02:45:52.986Z,96.22
2018-04-27T02:46:52.976Z,95.56
2018-04-27T02:47:52.967Z,95.94
2018-04-27T02:48:52.959Z,95.65
2018-04-27T02:49:52.954Z,95.36
2018-04-27T02:50:52.950Z,95.75
2018-04-27T02:51:52.944Z,95.56
2018-04-27T02:52:52.940Z,95.46
2018-04-27T02:53:52.932Z,95.75
2018-04-27T02:54:52.922Z,95.36
2018-04-27T02:55:52.916Z,94.70
2018-04-27T02:56:52.903Z,94.98
2018-04-27T02:57:52.912Z,94.89
2018-04-27T02:58:52.891Z,94.51
2018-04-27T02:59:52.884Z,94.51
2018-04-27T03:00:52.880Z,94.42
2018-04-27T03:01:52.873Z,93.94
2018-04-27T03:02:52.862Z,93.55
2018-04-27T03:03:52.858Z,92.99
2018-04-27T03:04:52.848Z,93.18
2018-04-27T03:05:52.842Z,93.08
2018-04-27T03:06:52.834Z,92.99
2018-04-27T03:07:52.828Z,92.70
2018-04-27T03:08:52.821Z,93.37
2018-04-27T03:09:52.816Z,92.70
2018-04-27T03:10:52.806Z,92.99
2018-04-27T03:11:52.799Z,92.51
2018-04-27T03:12:52.800Z,92.41
2018-04-27T03:13:52.791Z,91.94
2018-04-27T03:14:52.782Z,92.22
2018-04-27T03:15:52.776Z,92.22
2018-04-27T03:16:52.764Z,92.41
2018-04-27T03:17:52.757Z,92.99
2018-04-27T03:18:52.751Z,92.70
2018-04-27T03:19:52.744Z,93.94
2018-04-27T03:20:52.737Z,93.55
2018-04-27T03:21:52.730Z,93.55
2018-04-27T03:22:52.723Z,93.65
2018-04-27T03:23:52.750Z,93.46
2018-04-27T03:24:52.709Z,93.94
2018-04-27T03:25:52.702Z,94.27
2018-04-27T03:26:52.699Z,94.32
2018-04-27T03:27:52.693Z,94.60
2018-04-27T03:28:52.681Z,94.60
2018-04-27T03:29:52.679Z,94.56
2018-04-27T03:30:52.672Z,95.12
2018-04-27T03:31:52.661Z,94.56
2018-04-27T03:32:52.658Z,94.46
2018-04-27T03:33:52.650Z,94.46
2018-04-27T03:34:52.640Z,94.27
2018-04-27T03:35:52.633Z,94.56
2018-04-27T03:36:52.627Z,93.89
2018-04-27T03:37:52.617Z,93.89
2018-04-27T03:38:52.610Z,94.18
2018-04-27T03:39:52.607Z,94.56
2018-04-27T03:40:52.596Z,94.46
2018-04-27T03:41:52.589Z,94.93
2018-04-27T03:42:52.586Z,95.12
2018-04-27T03:43:52.575Z,94.93
2018-04-27T03:44:52.571Z,95.12
2018-04-27T03:45:52.564Z,95.12
2018-04-27T03:46:52.553Z,95.22
2018-04-27T03:47:52.545Z,95.70
2018-04-27T03:48:52.538Z,95.70
2018-04-27T03:49:52.533Z,96.26
2018-04-27T03:50:52.522Z,96.08
2018-04-27T03:51:52.528Z,96.26
2018-04-27T03:52:52.513Z,97.22
2018-04-27T03:53:52.505Z,97.12
2018-04-27T03:54:52.494Z,97.31
2018-04-27T03:55:52.487Z,97.60
2018-04-27T03:56:52.483Z,97.50
2018-04-27T03:57:52.476Z,97.17
2018-04-27T03:58:52.465Z,97.31
2018-04-27T03:59:52.457Z,97.50
2018-04-27T04:00:52.452Z,97.27
2018-04-27T04:01:52.442Z,96.84
2018-04-27T04:02:52.435Z,97.12
2018-04-27T04:03:52.428Z,97.12
2018-04-27T04:04:52.419Z,97.03
2018-04-27T04:05:52.412Z,97.12
2018-04-27T04:06:52.412Z,96.36
2018-04-27T04:07:52.403Z,96.74
2018-04-27T04:08:52.388Z,97.03
2018-04-27T04:09:52.382Z,96.74
2018-04-27T04:10:52.378Z,97.31
2018-04-27T04:11:52.371Z,97.31
2018-04-27T04:12:52.359Z,97.03
2018-04-27T04:13:52.352Z,97.03
2018-04-27T04:14:52.345Z,96.65
2018-04-27T04:15:52.338Z,97.31
2018-04-27T04:16:52.330Z,97.41
2018-04-27T04:17:52.321Z,97.50
2018-04-27T04:18:52.314Z,97.12
2018-04-27T04:19:52.308Z,97.60
2018-04-27T04:20:52.300Z,97.31
2018-04-27T04:21:52.293Z,96.74
2018-04-27T04:22:52.284Z,96.84
2018-04-27T04:23:52.277Z,96.84
2018-04-27T04:24:52.274Z,97.12
2018-04-27T04:25:52.268Z,97.31
2018-04-27T04:26:52.255Z,96.45
2018-04-27T04:27:52.248Z,96.65
2018-04-27T04:28:52.244Z,95.98
2018-04-27T04:29:52.241Z,95.98
2018-04-27T04:30:52.225Z,95.51
2018-04-27T04:31:52.220Z,95.89
2018-04-27T04:32:52.211Z,95.03
2018-04-27T04:33:52.203Z,94.56
2018-04-27T04:34:52.196Z,94.65
2018-04-27T04:35:52.190Z,94.46
2018-04-27T04:36:52.182Z,94.93
2018-04-27T04:37:52.175Z,94.46
2018-04-27T04:38:52.174Z,94.27
2018-04-27T04:39:52.165Z,93.51
2018-04-27T04:40:52.153Z,93.32
2018-04-27T04:41:52.146Z,93.55
2018-04-27T04:42:52.143Z,92.89
2018-04-27T04:43:52.143Z,93.27
2018-04-27T04:44:52.124Z,92.70
2018-04-27T04:45:52.117Z,92.27
2018-04-27T04:46:52.112Z,92.08
2018-04-27T04:47:52.103Z,91.17
2018-04-27T04:48:52.097Z,90.13
2018-04-27T04:49:52.089Z,89.41
2018-04-27T04:50:52.087Z,88.22
2018-04-27T04:51:52.081Z,86.51
2018-04-27T04:52:52.069Z,85.02
2018-04-27T04:53:52.068Z,82.83
2018-04-27T04:54:52.058Z,82.83
2018-04-27T04:55:52.051Z,81.59
2018-04-27T04:56:52.045Z,80.87
2018-04-27T04:57:52.038Z,80.30
2018-04-27T04:58:52.033Z,79.44
2018-04-27T04:59:52.034Z,79.25
2018-04-27T05:00:52.043Z,79.00
2018-04-27T05:01:52.021Z,78.75
2018-04-27T05:02:52.048Z,76.94
2018-04-27T05:03:52.011Z,76.08
2018-04-27T05:04:52.002Z,75.51
2018-04-27T05:05:51.997Z,74.84
2018-04-27T05:06:51.992Z,74.52
2018-04-27T05:07:51.993Z,74.99
2018-04-27T05:08:51.989Z,74.23
2018-04-27T05:09:51.983Z,74.23
2018-04-27T05:10:51.991Z,74.42
2018-04-27T05:11:51.971Z,74.32
2018-04-27T05:12:51.966Z,74.23
2018-04-27T05:13:51.961Z,74.38
2018-04-27T05:14:51.958Z,74.96
2018-04-27T05:15:51.954Z,74.96
2018-04-27T05:16:51.949Z,75.49
2018-04-27T05:17:51.946Z,76.44
2018-04-27T05:18:51.940Z,76.25
2018-04-27T05:19:51.937Z,77.20
2018-04-27T05:20:51.937Z,77.69
2018-04-27T05:21:51.932Z,77.69
2018-04-27T05:22:51.928Z,77.78
2018-04-27T05:23:51.924Z,77.78
2018-04-27T05:24:51.914Z,78.16
2018-04-27T05:25:51.910Z,78.25
2018-04-27T05:26:51.906Z,78.58
2018-04-27T05:27:51.903Z,78.01
2018-04-27T05:28:51.897Z,76.77
2018-04-27T05:29:51.895Z,76.48
2018-04-27T05:30:51.888Z,76.10
2018-04-27T05:31:51.888Z,75.76
2018-04-27T05:32:51.879Z,75.66
2018-04-27T05:33:51.875Z,75.66
2018-04-27T05:34:51.876Z,75.32
2018-04-27T05:35:51.872Z,74.30
2018-04-27T05:36:51.863Z,73.63
2018-04-27T05:37:51.861Z,73.77
2018-04-27T05:38:51.855Z,71.82
2018-04-27T05:39:51.856Z,71.19
2018-04-27T05:40:51.851Z,70.46
2018-04-27T05:41:51.849Z,69.60
2018-04-27T05:42:51.841Z,69.02
2018-04-27T05:43:51.839Z,67.88
2018-04-27T05:44:51.835Z,67.59
2018-04-27T05:45:51.833Z,67.43
2018-04-27T05:46:51.829Z,66.83
2018-04-27T05:47:51.832Z,66.25
2018-04-27T05:48:51.824Z,66.38
2018-04-27T05:49:51.825Z,66.28
2018-04-27T05:50:51.820Z,65.84
2018-04-27T05:51:51.822Z,64.79
2018-04-27T05:52:51.821Z,64.79
2018-04-27T05:53:51.819Z,64.22
2018-04-27T05:54:51.819Z,63.64
2018-04-27T05:55:51.821Z,63.48
2018-04-27T05:56:51.813Z,64.82
2018-04-27T05:57:51.813Z,64.02
2018-04-27T05:58:51.810Z,63.89
2018-04-27T05:59:51.811Z,63.67
2018-04-27T06:00:51.809Z,64.02
2018-04-27T06:01:51.809Z,64.62
2018-04-27T06:02:51.810Z,65.30
2018-04-27T06:03:51.810Z,64.88
2018-04-27T06:04:51.809Z,65.97
2018-04-27T06:05:51.810Z,65.97
2018-04-27T06:06:51.819Z,66.06
2018-04-27T06:07:51.816Z,65.81
2018-04-27T06:08:51.811Z,65.04
2018-04-27T06:09:51.813Z,64.95
2018-04-27T06:10:51.813Z,64.31
2018-04-27T06:11:51.815Z,63.57
2018-04-27T06:12:51.819Z,62.93
2018-04-27T06:13:51.822Z,61.69
2018-04-27T06:14:51.818Z,60.89
2018-04-27T06:15:51.819Z,60.99
2018-04-27T06:16:51.820Z,61.40
2018-04-27T06:17:51.821Z,60.86
2018-04-27T06:18:51.823Z,60.03
2018-04-27T06:19:51.831Z,59.33
2018-04-27T06:20:51.826Z,59.52
2018-04-27T06:21:51.829Z,58.94
2018-04-27T06:22:51.830Z,58.71
2018-04-27T06:23:51.907Z,58.23
2018-04-27T06:24:51.839Z,58.23
2018-04-27T06:25:51.842Z,57.43
2018-04-27T06:26:51.844Z,56.68
2018-04-27T06:27:51.847Z,55.05
2018-04-27T06:28:51.846Z,54.67
2018-04-27T06:29:51.848Z,53.86
2018-04-27T06:30:51.851Z,52.46
2018-04-27T06:31:51.921Z,52.40
2018-04-27T06:32:51.858Z,53.42
2018-04-27T06:33:51.862Z,53.68
2018-04-27T06:34:51.867Z,53.17
2018-04-27T06:35:51.870Z,53.63
2018-04-27T06:36:51.873Z,54.04
2018-04-27T06:37:51.877Z,54.60
2018-04-27T06:38:51.887Z,54.17
2018-04-27T06:39:51.892Z,52.24
2018-04-27T06:40:51.889Z,52.46
2018-04-27T06:41:51.894Z,51.59
2018-04-27T06:42:51.898Z,51.69
2018-04-27T06:43:51.909Z,51.59
2018-04-27T06:44:51.912Z,51.88
2018-04-27T06:45:51.917Z,51.86
2018-04-27T06:46:51.917Z,51.86
2018-04-27T06:47:51.923Z,52.17
2018-04-27T06:48:51.927Z,51.51
2018-04-27T06:49:51.932Z,52.57
2018-04-27T06:50:51.937Z,52.69
2018-04-27T06:51:51.943Z,52.67
2018-04-27T06:52:51.951Z,52.67
2018-04-27T06:53:51.953Z,52.45
2018-04-27T06:54:51.959Z,53.28
2018-04-27T06:55:51.965Z,53.67
2018-04-27T06:56:51.973Z,54.44
2018-04-27T06:57:51.980Z,54.63
2018-04-27T06:58:51.981Z,54.82
2018-04-27T06:59:51.987Z,55.23
2018-04-27T07:00:51.991Z,55.35
2018-04-27T07:01:52.001Z,54.04
2018-04-27T07:02:52.003Z,53.91
2018-04-27T07:03:52.009Z,54.04
2018-04-27T07:04:52.017Z,53.72
2018-04-27T07:05:52.023Z,53.97
2018-04-27T07:06:52.023Z,54.13
2018-04-27T07:07:52.029Z,53.13
2018-04-27T07:08:52.038Z,52.46
2018-04-27T07:09:52.044Z,52.20
2018-04-27T07:10:52.045Z,51.81
2018-04-27T07:11:52.051Z,51.46
2018-04-27T07:12:52.057Z,52.71
2018-04-27T07:13:52.062Z,53.63
2018-04-27T07:14:52.069Z,53.53
2018-04-27T07:15:52.074Z,53.24
2018-04-27T07:16:52.154Z,53.86
2018-04-27T07:17:52.083Z,53.67
2018-04-27T07:18:52.093Z,54.91
2018-04-27T07:19:52.099Z,55.13
2018-04-27T07:20:52.099Z,55.13
2018-04-27T07:21:52.104Z,55.35
2018-04-27T07:22:52.115Z,55.57
2018-04-27T07:23:52.120Z,55.02
2018-04-27T07:24:52.120Z,54.55
2018-04-27T07:25:52.223Z,53.66
2018-04-27T07:26:52.130Z,52.43
2018-04-27T07:27:52.135Z,51.64
2018-04-27T07:28:52.140Z,51.76
2018-04-27T07:29:52.173Z,52.12
2018-04-27T07:30:52.150Z,51.81
2018-04-27T07:31:52.155Z,51.30
2018-04-27T07:32:52.162Z,52.14
2018-04-27T07:33:52.166Z,52.67
2018-04-27T07:34:52.169Z,52.89
2018-04-27T07:35:52.179Z,51.83
2018-04-27T07:36:52.184Z,51.95
2018-04-27T07:37:52.190Z,51.71
2018-04-27T07:38:52.189Z,51.64
2018-04-27T07:39:52.194Z,51.90
2018-04-27T07:40:52.208Z,51.81
2018-04-27T07:41:52.207Z,51.59
2018-04-27T07:42:52.212Z,52.33
2018-04-27T07:43:52.214Z,53.26
2018-04-27T07:44:52.218Z,53.96
2018-04-27T07:45:52.222Z,53.19
2018-04-27T07:46:52.227Z,54.24
2018-04-27T07:47:52.232Z,53.96
2018-04-27T07:48:52.235Z,54.15
2018-04-27T07:49:52.241Z,54.46
2018-04-27T07:50:52.249Z,54.46
2018-04-27T07:51:52.254Z,54.17
2018-04-27T07:52:52.252Z,54.21
2018-04-27T07:53:52.256Z,53.34
2018-04-27T07:54:52.268Z,52.76
2018-04-27T07:55:52.270Z,52.22
2018-04-27T07:56:52.268Z,52.12
2018-04-27T07:57:52.276Z,52.24
2018-04-27T07:58:52.277Z,51.98
2018-04-27T07:59:52.282Z,51.21
2018-04-27T08:00:52.287Z,50.82
2018-04-27T08:01:52.288Z,50.15
2018-04-27T08:02:52.295Z,49.87
2018-04-27T08:03:52.299Z,50.18
2018-04-27T08:04:52.297Z,49.24
2018-04-27T08:05:52.303Z,47.80
2018-04-27T08:06:52.308Z,47.68
2018-04-27T08:07:52.312Z,46.89
2018-04-27T08:08:52.379Z,47.20
2018-04-27T08:09:52.319Z,47.08
2018-04-27T08:10:52.325Z,47.08
2018-04-27T08:11:52.340Z,46.79
2018-04-27T08:12:52.335Z,47.20
2018-04-27T08:13:52.340Z,46.91
2018-04-27T08:14:52.351Z,46.67
2018-04-27T08:15:52.355Z,45.80
2018-04-27T08:16:52.356Z,45.87
2018-04-27T08:17:52.363Z,44.71
2018-04-27T08:18:52.370Z,43.65
2018-04-27T08:19:52.374Z,43.41
2018-04-27T08:20:52.386Z,43.37
2018-04-27T08:21:52.391Z,43.30
2018-04-27T08:22:52.394Z,43.28
2018-04-27T08:23:52.401Z,43.85
2018-04-27T08:24:52.408Z,42.96
2018-04-27T08:25:52.416Z,43.44
2018-04-27T08:26:52.476Z,42.76
2018-04-27T08:27:52.431Z,42.79
2018-04-27T08:28:52.438Z,42.09
2018-04-27T08:29:52.449Z,42.36
2018-04-27T08:30:52.454Z,42.96
2018-04-27T08:31:52.462Z,42.72
2018-04-27T08:32:52.476Z,43.49
2018-04-27T08:33:52.482Z,43.20
2018-04-27T08:34:52.491Z,43.80
2018-04-27T08:35:52.499Z,43.71
2018-04-27T08:36:52.503Z,43.29
2018-04-27T08:37:52.511Z,43.51
2018-04-27T08:38:52.524Z,43.24
2018-04-27T08:39:52.529Z,43.03
2018-04-27T08:40:52.537Z,42.96
2018-04-27T08:41:52.545Z,43.03
2018-04-27T08:42:52.554Z,43.51
2018-04-27T08:43:52.622Z,42.93
2018-04-27T08:44:52.571Z,43.37
2018-04-27T08:45:52.579Z,42.83
2018-04-27T08:46:52.593Z,42.35
2018-04-27T08:47:52.603Z,41.65
2018-04-27T08:48:52.605Z,42.13
2018-04-27T08:49:52.615Z,42.21
2018-04-27T08:50:52.625Z,42.36
2018-04-27T08:51:52.633Z,42.74
2018-04-27T08:52:52.645Z,42.97
2018-04-27T08:53:52.653Z,42.76
2018-04-27T08:54:52.659Z,42.72
2018-04-27T08:55:52.667Z,42.91
2018-04-27T08:56:52.674Z,43.32
2018-04-27T08:57:52.682Z,43.05
2018-04-27T08:58:52.690Z,43.75
2018-04-27T08:59:52.699Z,43.17
2018-04-27T09:00:52.707Z,42.93
2018-04-27T09:01:52.719Z,43.18
2018-04-27T09:02:52.723Z,43.74
2018-04-27T09:03:52.734Z,44.68
2018-04-27T09:04:52.743Z,45.73
2018-04-27T09:05:52.751Z,46.33
2018-04-27T09:06:52.756Z,46.62
2018-04-27T09:07:52.763Z,46.43
2018-04-27T09:08:52.771Z,46.36
2018-04-27T09:09:52.778Z,46.38
2018-04-27T09:10:52.785Z,46.36
2018-04-27T09:11:52.793Z,46.23
2018-04-27T09:12:52.804Z,46.33
2018-04-27T09:13:52.812Z,46.31
2018-04-27T09:14:52.813Z,46.41
2018-04-27T09:15:52.823Z,46.91
2018-04-27T09:16:52.833Z,46.62
2018-04-27T09:17:52.841Z,47.30
2018-04-27T09:18:52.841Z,47.34
2018-04-27T09:19:52.849Z,46.57
2018-04-27T09:20:52.856Z,46.59
2018-04-27T09:21:52.862Z,46.55
2018-04-27T09:22:52.869Z,46.15
2018-04-27T09:23:52.877Z,44.89
2018-04-27T09:24:52.881Z,44.48
2018-04-27T09:25:52.889Z,44.76
2018-04-27T09:26:52.942Z,44.38
2018-04-27T09:27:52.907Z,44.69
2018-04-27T09:28:52.909Z,45.00
2018-04-27T09:29:52.916Z,44.54
2018-04-27T09:30:52.927Z,43.82
2018-04-27T09:31:52.934Z,43.37
2018-04-27T09:32:52.936Z,43.46
2018-04-27T09:33:52.944Z,43.34
2018-04-27T09:34:52.950Z,43.63
2018-04-27T09:35:52.957Z,43.94
2018-04-27T09:36:52.963Z,43.89
2018-04-27T09:37:52.970Z,42.69
2018-04-27T09:38:52.977Z,42.59
2018-04-27T09:39:52.984Z,42.19
2018-04-27T09:40:52.990Z,42.38
2018-04-27T09:41:52.997Z,42.63
2018-04-27T09:42:53.004Z,42.53
2018-04-27T09:43:53.011Z,42.89
2018-04-27T09:44:53.020Z,43.37
2018-04-27T09:45:53.028Z,43.66
2018-04-27T09:46:53.031Z,44.60
2018-04-27T09:47:53.040Z,44.82
2018-04-27T09:48:53.048Z,45.05
2018-04-27T09:49:53.055Z,44.38
2018-04-27T09:50:53.057Z,43.13
2018-04-27T09:51:53.063Z,43.15
2018-04-27T09:52:53.070Z,42.96
2018-04-27T09:53:53.076Z,42.49
2018-04-27T09:54:53.083Z,42.30
2018-04-27T09:55:53.090Z,41.82
2018-04-27T09:56:53.096Z,42.09
2018-04-27T09:57:53.102Z,41.27
2018-04-27T09:58:53.112Z,40.78
2018-04-27T09:59:53.119Z,40.39
2018-04-27T10:00:53.120Z,40.01
2018-04-27T10:01:53.128Z,39.74
2018-04-27T10:02:53.139Z,39.54
2018-04-27T10:03:53.154Z,39.24
2018-04-27T10:04:53.152Z,39.41
2018-04-27T10:05:53.159Z,39.62
2018-04-27T10:06:53.162Z,39.66
2018-04-27T10:07:53.169Z,40.15
2018-04-27T10:08:53.176Z,40.07
2018-04-27T10:09:53.184Z,39.14
2018-04-27T10:10:53.196Z,39.24
2018-04-27T10:11:53.202Z,39.53
2018-04-27T10:12:53.209Z,38.28
2018-04-27T10:13:53.218Z,38.22
2018-04-27T10:14:53.220Z,39.37
2018-04-27T10:15:53.227Z,39.78
2018-04-27T10:16:53.238Z,40.26
2018-04-27T10:17:53.241Z,40.69
2018-04-27T10:18:53.248Z,40.42
2018-04-27T10:19:53.256Z,39.54
2018-04-27T10:20:53.263Z,38.78
2018-04-27T10:21:53.271Z,38.51
2018-04-27T10:22:53.281Z,38.25
2018-04-27T10:23:53.286Z,38.37
2018-04-27T10:24:53.297Z,36.72
2018-04-27T10:25:53.304Z,36.34
2018-04-27T10:26:53.312Z,35.52
2018-04-27T10:27:53.320Z,36.19
2018-04-27T10:28:53.322Z,35.96
2018-04-27T10:29:53.331Z,35.96
2018-04-27T10:30:53.347Z,36.83
2018-04-27T10:31:53.348Z,36.85
2018-04-27T10:32:53.354Z,37.12
2018-04-27T10:33:53.361Z,37.81
2018-04-27T10:34:53.369Z,36.87
2018-04-27T10:35:53.376Z,36.87
2018-04-27T10:36:53.382Z,36.71
2018-04-27T10:37:53.390Z,36.71
2018-04-27T10:38:53.401Z,36.42
2018-04-27T10:39:53.408Z,35.82
2018-04-27T10:40:53.412Z,35.42
2018-04-27T10:41:53.419Z,35.61
2018-04-27T10:42:53.426Z,35.92
2018-04-27T10:43:53.435Z,36.57
2018-04-27T10:44:53.444Z,36.48
2018-04-27T10:45:53.454Z,36.19
2018-04-27T10:46:53.454Z,36.59
2018-04-27T10:47:53.462Z,35.72
2018-04-27T10:48:53.468Z,35.92
2018-04-27T10:49:53.478Z,36.21
2018-04-27T10:50:53.487Z,35.71
2018-04-27T10:51:53.491Z,35.40
2018-04-27T10:52:53.498Z,35.32
2018-04-27T10:53:53.504Z,35.32
2018-04-27T10:54:53.511Z,35.32
2018-04-27T10:55:53.521Z,35.90
2018-04-27T10:56:53.530Z,36.09
2018-04-27T10:57:53.536Z,36.01
2018-04-27T10:58:53.543Z,35.72
2018-04-27T10:59:53.550Z,35.44
2018-04-27T11:00:53.553Z,34.84
2018-04-27T11:01:53.560Z,34.72
2018-04-27T11:02:53.568Z,34.53
2018-04-27T11:03:53.574Z,34.72
2018-04-27T11:04:53.581Z,34.82
2018-04-27T11:05:53.587Z,35.02
2018-04-27T11:06:53.595Z,35.02
2018-04-27T11:07:53.601Z,34.34
2018-04-27T11:08:53.608Z,34.14
2018-04-27T11:09:53.615Z,33.65
2018-04-27T11:10:53.706Z,33.25
2018-04-27T11:11:53.632Z,32.86
2018-04-27T11:12:53.634Z,33.15
2018-04-27T11:13:53.643Z,33.65
2018-04-27T11:14:53.648Z,34.03
2018-04-27T11:15:53.655Z,33.66
2018-04-27T11:16:54.082Z,33.61
2018-04-27T11:17:53.668Z,33.98
2018-04-27T11:18:53.678Z,34.50
2018-04-27T11:19:53.685Z,35.48
2018-04-27T11:20:53.686Z,35.19
2018-04-27T11:21:53.693Z,35.30
2018-04-27T11:22:53.704Z,34.84
2018-04-27T11:23:53.710Z,34.55
2018-04-27T11:24:53.712Z,33.45
2018-04-27T11:25:53.717Z,33.66
2018-04-27T11:26:53.724Z,33.94
2018-04-27T11:27:53.731Z,34.32
2018-04-27T11:28:53.736Z,34.38
2018-04-27T11:29:53.742Z,34.96
2018-04-27T11:30:53.749Z,34.86
2018-04-27T11:31:53.755Z,35.27
2018-04-27T11:32:53.761Z,35.77
2018-04-27T11:33:53.766Z,35.88
2018-04-27T11:34:53.780Z,35.28
2018-04-27T11:35:53.784Z,35.10
2018-04-27T11:36:53.787Z,35.28
2018-04-27T11:37:53.794Z,35.17
2018-04-27T11:38:53.795Z,35.08
2018-04-27T11:39:53.801Z,34.96
2018-04-27T11:40:53.811Z,34.84
2018-04-27T11:41:53.815Z,35.54
2018-04-27T11:42:53.817Z,36.00
2018-04-27T11:43:53.822Z,36.21
2018-04-27T11:44:53.826Z,36.77
2018-04-27T11:45:53.831Z,36.69
2018-04-27T11:46:53.838Z,36.97
2018-04-27T11:47:53.841Z,36.68
2018-04-27T11:48:53.845Z,36.97
2018-04-27T11:49:53.858Z,36.66
2018-04-27T11:50:53.860Z,36.97
2018-04-27T11:51:53.864Z,36.47
2018-04-27T11:52:53.863Z,36.66
2018-04-27T11:53:53.868Z,36.85
2018-04-27T11:54:53.877Z,36.77
2018-04-27T11:55:53.882Z,36.60
2018-04-27T11:56:53.881Z,37.68
2018-04-27T11:57:53.887Z,36.79
2018-04-27T11:58:53.890Z,36.19
2018-04-27T11:59:53.895Z,35.89
2018-04-27T12:00:53.898Z,36.29
2018-04-27T12:01:53.903Z,36.00
2018-04-27T12:02:53.908Z,36.10
2018-04-27T12:03:53.912Z,35.89
2018-04-27T12:04:53.915Z,36.68
2018-04-27T12:05:53.920Z,36.49
2018-04-27T12:06:53.923Z,36.97
2018-04-27T12:07:53.928Z,36.76
2018-04-27T12:08:53.935Z,37.04
2018-04-27T12:09:53.939Z,38.12
2018-04-27T12:10:53.939Z,38.41
2018-04-27T12:11:53.944Z,37.91
2018-04-27T12:12:53.951Z,38.01
2018-04-27T12:13:53.955Z,38.09
2018-04-27T12:14:53.955Z,38.09
2018-04-27T12:15:53.959Z,38.01
2018-04-27T12:16:53.962Z,38.10
2018-04-27T12:17:53.967Z,38.39
2018-04-27T12:18:53.970Z,38.31
2018-04-27T12:19:53.975Z,38.12
2018-04-27T12:20:53.982Z,38.12
2018-04-27T12:21:53.986Z,38.41
2018-04-27T12:22:53.986Z,37.74
2018-04-27T12:23:53.989Z,37.64
2018-04-27T12:24:53.992Z,37.83
2018-04-27T12:25:53.997Z,37.45
2018-04-27T12:26:54.000Z,38.10
2018-04-27T12:27:54.004Z,38.10
2018-04-27T12:28:54.007Z,38.37
2018-04-27T12:29:54.011Z,38.78
2018-04-27T12:30:54.103Z,38.29
2018-04-27T12:31:54.120Z,38.37
2018-04-27T12:32:54.026Z,38.18
2018-04-27T12:33:54.029Z,38.45
2018-04-27T12:34:54.033Z,39.04
2018-04-27T12:35:54.035Z,39.53
2018-04-27T12:36:54.033Z,39.43
2018-04-27T12:37:54.059Z,39.62
2018-04-27T12:38:54.115Z,39.62
2018-04-27T12:39:54.042Z,40.01
2018-04-27T12:40:54.045Z,39.72
2018-04-27T12:41:54.048Z,39.62
2018-04-27T12:42:54.050Z,39.41
2018-04-27T12:43:54.053Z,39.61
2018-04-27T12:44:54.056Z,39.41
2018-04-27T12:45:54.058Z,39.61
2018-04-27T12:46:54.064Z,39.51
2018-04-27T12:47:54.066Z,39.99
2018-04-27T12:48:54.064Z,39.99
2018-04-27T12:49:54.066Z,40.01
2018-04-27T12:50:54.074Z,39.61
2018-04-27T12:51:54.071Z,39.99
2018-04-27T12:52:54.076Z,39.41